sensor_id;sensor_type;location;lat;lon;timestamp;temperature;humidity
69208;SHT31;70114;47.690;8.898;2024-01-06T00:02:03;6.24;88.67
69208;SHT31;70114;47.690;8.898;2024-01-06T00:04:28;6.33;88.38
69208;SHT31;70114;47.690;8.898;2024-01-06T00:06:54;6.34;88.37
69208;SHT31;70114;47.690;8.898;2024-01-06T00:09:19;6.27;88.62
69208;SHT31;70114;47.690;8.898;2024-01-06T00:11:45;6.33;88.37
69208;SHT31;70114;47.690;8.898;2024-01-06T00:14:10;6.41;88.26
69208;SHT31;70114;47.690;8.898;2024-01-06T00:16:36;6.37;88.41
69208;SHT31;70114;47.690;8.898;2024-01-06T00:19:01;6.38;88.44
69208;SHT31;70114;47.690;8.898;2024-01-06T00:21:27;6.35;88.49
69208;SHT31;70114;47.690;8.898;2024-01-06T00:23:53;6.34;88.47
69208;SHT31;70114;47.690;8.898;2024-01-06T00:26:20;6.24;88.87
69208;SHT31;70114;47.690;8.898;2024-01-06T00:28:46;6.30;88.68
69208;SHT31;70114;47.690;8.898;2024-01-06T00:31:14;6.31;88.55
69208;SHT31;70114;47.690;8.898;2024-01-06T00:33:39;6.35;88.33
69208;SHT31;70114;47.690;8.898;2024-01-06T00:36:07;6.31;88.85
69208;SHT31;70114;47.690;8.898;2024-01-06T00:38:32;6.37;88.20
69208;SHT31;70114;47.690;8.898;2024-01-06T00:40:57;6.31;88.49
69208;SHT31;70114;47.690;8.898;2024-01-06T00:43:23;6.21;88.44
69208;SHT31;70114;47.690;8.898;2024-01-06T00:45:48;6.10;89.66
69208;SHT31;70114;47.690;8.898;2024-01-06T00:48:14;6.17;89.11
69208;SHT31;70114;47.690;8.898;2024-01-06T00:50:39;6.21;88.81
69208;SHT31;70114;47.690;8.898;2024-01-06T00:53:04;6.24;88.62
69208;SHT31;70114;47.690;8.898;2024-01-06T00:55:30;6.24;88.55
69208;SHT31;70114;47.690;8.898;2024-01-06T00:57:55;6.24;88.36
69208;SHT31;70114;47.690;8.898;2024-01-06T01:00:20;6.16;88.56
69208;SHT31;70114;47.690;8.898;2024-01-06T01:02:46;6.11;88.55
69208;SHT31;70114;47.690;8.898;2024-01-06T01:05:11;6.18;88.27
69208;SHT31;70114;47.690;8.898;2024-01-06T01:07:37;6.18;88.28
69208;SHT31;70114;47.690;8.898;2024-01-06T01:10:02;6.20;88.29
69208;SHT31;70114;47.690;8.898;2024-01-06T01:12:28;6.14;88.37
69208;SHT31;70114;47.690;8.898;2024-01-06T01:14:53;6.16;88.58
69208;SHT31;70114;47.690;8.898;2024-01-06T01:17:19;6.18;88.54
69208;SHT31;70114;47.690;8.898;2024-01-06T01:19:45;6.16;88.71
69208;SHT31;70114;47.690;8.898;2024-01-06T01:22:11;6.20;88.39
69208;SHT31;70114;47.690;8.898;2024-01-06T01:24:37;6.18;87.99
69208;SHT31;70114;47.690;8.898;2024-01-06T01:27:02;6.13;88.35
69208;SHT31;70114;47.690;8.898;2024-01-06T01:29:28;6.10;87.96
69208;SHT31;70114;47.690;8.898;2024-01-06T01:31:53;6.06;87.57
69208;SHT31;70114;47.690;8.898;2024-01-06T01:34:18;5.95;86.97
69208;SHT31;70114;47.690;8.898;2024-01-06T01:36:44;5.96;86.55
69208;SHT31;70114;47.690;8.898;2024-01-06T01:39:10;6.09;86.95
69208;SHT31;70114;47.690;8.898;2024-01-06T01:41:35;6.02;86.87
69208;SHT31;70114;47.690;8.898;2024-01-06T01:44:01;6.04;86.78
69208;SHT31;70114;47.690;8.898;2024-01-06T01:46:27;5.95;86.42
69208;SHT31;70114;47.690;8.898;2024-01-06T01:48:57;5.92;86.77
69208;SHT31;70114;47.690;8.898;2024-01-06T01:51:27;5.85;86.93
69208;SHT31;70114;47.690;8.898;2024-01-06T01:53:53;5.79;86.73
69208;SHT31;70114;47.690;8.898;2024-01-06T01:56:20;5.83;86.89
69208;SHT31;70114;47.690;8.898;2024-01-06T01:58:47;5.75;87.00
69208;SHT31;70114;47.690;8.898;2024-01-06T02:01:13;5.72;86.95
69208;SHT31;70114;47.690;8.898;2024-01-06T02:03:41;5.48;87.46
69208;SHT31;70114;47.690;8.898;2024-01-06T02:06:09;5.39;87.59
69208;SHT31;70114;47.690;8.898;2024-01-06T02:08:34;5.26;88.09
69208;SHT31;70114;47.690;8.898;2024-01-06T02:11:03;5.28;88.22
69208;SHT31;70114;47.690;8.898;2024-01-06T02:13:33;5.10;87.95
69208;SHT31;70114;47.690;8.898;2024-01-06T02:15:59;5.17;87.74
69208;SHT31;70114;47.690;8.898;2024-01-06T02:18:24;4.90;87.72
69208;SHT31;70114;47.690;8.898;2024-01-06T02:20:53;4.79;88.68
69208;SHT31;70114;47.690;8.898;2024-01-06T02:23:20;4.77;88.68
69208;SHT31;70114;47.690;8.898;2024-01-06T02:25:46;4.75;88.44
69208;SHT31;70114;47.690;8.898;2024-01-06T02:28:11;4.70;87.70
69208;SHT31;70114;47.690;8.898;2024-01-06T02:30:36;4.80;87.86
69208;SHT31;70114;47.690;8.898;2024-01-06T02:33:02;4.73;88.33
69208;SHT31;70114;47.690;8.898;2024-01-06T02:35:27;4.56;88.25
69208;SHT31;70114;47.690;8.898;2024-01-06T02:37:53;4.63;88.56
69208;SHT31;70114;47.690;8.898;2024-01-06T02:40:18;4.58;88.53
69208;SHT31;70114;47.690;8.898;2024-01-06T02:42:43;4.66;88.21
69208;SHT31;70114;47.690;8.898;2024-01-06T02:45:09;4.68;88.33
69208;SHT31;70114;47.690;8.898;2024-01-06T02:47:34;4.58;88.39
69208;SHT31;70114;47.690;8.898;2024-01-06T02:50:00;4.49;88.45
69208;SHT31;70114;47.690;8.898;2024-01-06T02:52:25;4.48;88.27
69208;SHT31;70114;47.690;8.898;2024-01-06T02:54:51;4.35;88.54
69208;SHT31;70114;47.690;8.898;2024-01-06T02:57:17;4.35;89.23
69208;SHT31;70114;47.690;8.898;2024-01-06T02:59:43;4.51;88.68
69208;SHT31;70114;47.690;8.898;2024-01-06T03:02:08;4.40;88.74
69208;SHT31;70114;47.690;8.898;2024-01-06T03:04:33;4.46;88.87
69208;SHT31;70114;47.690;8.898;2024-01-06T03:06:59;4.52;88.85
69208;SHT31;70114;47.690;8.898;2024-01-06T03:09:25;4.53;88.53
69208;SHT31;70114;47.690;8.898;2024-01-06T03:11:50;4.44;88.65
69208;SHT31;70114;47.690;8.898;2024-01-06T03:14:15;4.58;88.06
69208;SHT31;70114;47.690;8.898;2024-01-06T03:16:41;4.46;87.83
69208;SHT31;70114;47.690;8.898;2024-01-06T03:19:06;4.51;88.41
69208;SHT31;70114;47.690;8.898;2024-01-06T03:21:32;4.48;88.56
69208;SHT31;70114;47.690;8.898;2024-01-06T03:23:57;4.65;88.36
69208;SHT31;70114;47.690;8.898;2024-01-06T03:26:22;4.62;88.00
69208;SHT31;70114;47.690;8.898;2024-01-06T03:28:49;4.72;87.67
69208;SHT31;70114;47.690;8.898;2024-01-06T03:31:15;4.52;87.78
69208;SHT31;70114;47.690;8.898;2024-01-06T03:33:42;4.56;88.14
69208;SHT31;70114;47.690;8.898;2024-01-06T03:36:07;4.79;87.99
69208;SHT31;70114;47.690;8.898;2024-01-06T03:38:33;4.91;87.81
69208;SHT31;70114;47.690;8.898;2024-01-06T03:40:59;4.96;87.51
69208;SHT31;70114;47.690;8.898;2024-01-06T03:43:24;4.76;87.62
69208;SHT31;70114;47.690;8.898;2024-01-06T03:45:50;4.97;87.46
69208;SHT31;70114;47.690;8.898;2024-01-06T03:48:15;5.00;87.09
69208;SHT31;70114;47.690;8.898;2024-01-06T03:50:40;5.04;86.77
69208;SHT31;70114;47.690;8.898;2024-01-06T03:53:06;5.14;86.87
69208;SHT31;70114;47.690;8.898;2024-01-06T03:55:31;5.10;86.74
69208;SHT31;70114;47.690;8.898;2024-01-06T03:57:57;5.14;86.67
69208;SHT31;70114;47.690;8.898;2024-01-06T04:00:25;5.18;86.02
69208;SHT31;70114;47.690;8.898;2024-01-06T04:02:51;5.23;86.11
69208;SHT31;70114;47.690;8.898;2024-01-06T04:05:16;5.28;86.10
69208;SHT31;70114;47.690;8.898;2024-01-06T04:07:42;5.30;86.00
69208;SHT31;70114;47.690;8.898;2024-01-06T04:10:07;5.35;86.02
69208;SHT31;70114;47.690;8.898;2024-01-06T04:12:33;5.34;86.01
69208;SHT31;70114;47.690;8.898;2024-01-06T04:14:58;5.37;85.84
69208;SHT31;70114;47.690;8.898;2024-01-06T04:17:24;5.37;85.77
69208;SHT31;70114;47.690;8.898;2024-01-06T04:19:51;5.28;86.21
69208;SHT31;70114;47.690;8.898;2024-01-06T04:22:16;5.30;86.48
69208;SHT31;70114;47.690;8.898;2024-01-06T04:24:41;5.34;86.22
69208;SHT31;70114;47.690;8.898;2024-01-06T04:27:07;5.34;86.14
69208;SHT31;70114;47.690;8.898;2024-01-06T04:29:32;5.34;86.00
69208;SHT31;70114;47.690;8.898;2024-01-06T04:31:58;5.38;85.81
69208;SHT31;70114;47.690;8.898;2024-01-06T04:34:23;5.35;85.94
69208;SHT31;70114;47.690;8.898;2024-01-06T04:36:48;5.35;85.97
69208;SHT31;70114;47.690;8.898;2024-01-06T04:39:15;5.24;86.20
69208;SHT31;70114;47.690;8.898;2024-01-06T04:41:40;5.34;85.89
69208;SHT31;70114;47.690;8.898;2024-01-06T04:44:06;5.34;86.02
69208;SHT31;70114;47.690;8.898;2024-01-06T04:46:31;5.35;85.85
69208;SHT31;70114;47.690;8.898;2024-01-06T04:48:57;5.38;85.57
69208;SHT31;70114;47.690;8.898;2024-01-06T04:51:22;5.39;85.52
69208;SHT31;70114;47.690;8.898;2024-01-06T04:53:47;5.34;85.70
69208;SHT31;70114;47.690;8.898;2024-01-06T04:56:13;5.39;85.98
69208;SHT31;70114;47.690;8.898;2024-01-06T04:58:38;5.35;86.35
69208;SHT31;70114;47.690;8.898;2024-01-06T05:01:04;5.38;86.45
69208;SHT31;70114;47.690;8.898;2024-01-06T05:03:30;5.37;86.67
69208;SHT31;70114;47.690;8.898;2024-01-06T05:05:55;5.24;87.25
69208;SHT31;70114;47.690;8.898;2024-01-06T05:08:20;5.24;87.13
69208;SHT31;70114;47.690;8.898;2024-01-06T05:10:48;5.27;87.17
69208;SHT31;70114;47.690;8.898;2024-01-06T05:13:13;5.26;87.12
69208;SHT31;70114;47.690;8.898;2024-01-06T05:15:39;5.30;86.90
69208;SHT31;70114;47.690;8.898;2024-01-06T05:18:04;5.31;86.81
69208;SHT31;70114;47.690;8.898;2024-01-06T05:20:30;5.31;86.83
69208;SHT31;70114;47.690;8.898;2024-01-06T05:22:55;5.32;86.78
69208;SHT31;70114;47.690;8.898;2024-01-06T05:25:20;5.37;86.79
69208;SHT31;70114;47.690;8.898;2024-01-06T05:27:46;5.37;86.65
69208;SHT31;70114;47.690;8.898;2024-01-06T05:30:11;5.37;86.75
69208;SHT31;70114;47.690;8.898;2024-01-06T05:32:37;5.35;86.61
69208;SHT31;70114;47.690;8.898;2024-01-06T05:35:04;5.38;86.53
69208;SHT31;70114;47.690;8.898;2024-01-06T05:37:29;5.38;86.66
69208;SHT31;70114;47.690;8.898;2024-01-06T05:39:55;5.38;86.38
69208;SHT31;70114;47.690;8.898;2024-01-06T05:42:20;5.42;86.38
69208;SHT31;70114;47.690;8.898;2024-01-06T05:44:46;5.44;86.35
69208;SHT31;70114;47.690;8.898;2024-01-06T05:47:11;5.39;86.59
69208;SHT31;70114;47.690;8.898;2024-01-06T05:49:41;5.42;86.39
69208;SHT31;70114;47.690;8.898;2024-01-06T05:52:08;5.44;86.42
69208;SHT31;70114;47.690;8.898;2024-01-06T05:54:33;5.38;86.75
69208;SHT31;70114;47.690;8.898;2024-01-06T05:56:58;5.38;86.28
69208;SHT31;70114;47.690;8.898;2024-01-06T05:59:24;5.34;86.44
69208;SHT31;70114;47.690;8.898;2024-01-06T06:01:50;5.38;86.41
69208;SHT31;70114;47.690;8.898;2024-01-06T06:04:15;5.35;86.70
69208;SHT31;70114;47.690;8.898;2024-01-06T06:06:41;5.37;86.48
69208;SHT31;70114;47.690;8.898;2024-01-06T06:09:06;5.34;86.59
69208;SHT31;70114;47.690;8.898;2024-01-06T06:11:33;5.37;86.56
69208;SHT31;70114;47.690;8.898;2024-01-06T06:13:58;5.34;86.47
69208;SHT31;70114;47.690;8.898;2024-01-06T06:16:24;5.38;86.47
69208;SHT31;70114;47.690;8.898;2024-01-06T06:18:49;5.35;86.52
69208;SHT31;70114;47.690;8.898;2024-01-06T06:21:15;5.37;86.68
69208;SHT31;70114;47.690;8.898;2024-01-06T06:23:41;5.31;86.89
69208;SHT31;70114;47.690;8.898;2024-01-06T06:26:06;5.32;87.08
69208;SHT31;70114;47.690;8.898;2024-01-06T06:28:33;5.37;86.68
69208;SHT31;70114;47.690;8.898;2024-01-06T06:30:59;5.32;86.61
69208;SHT31;70114;47.690;8.898;2024-01-06T06:33:25;5.39;86.47
69208;SHT31;70114;47.690;8.898;2024-01-06T06:35:50;5.34;86.42
69208;SHT31;70114;47.690;8.898;2024-01-06T06:38:16;5.34;86.63
69208;SHT31;70114;47.690;8.898;2024-01-06T06:40:42;5.35;86.58
69208;SHT31;70114;47.690;8.898;2024-01-06T06:43:07;5.37;86.57
69208;SHT31;70114;47.690;8.898;2024-01-06T06:45:33;5.31;86.55
69208;SHT31;70114;47.690;8.898;2024-01-06T06:47:58;5.20;86.87
69208;SHT31;70114;47.690;8.898;2024-01-06T06:50:24;5.20;86.71
69208;SHT31;70114;47.690;8.898;2024-01-06T06:52:49;5.10;86.63
69208;SHT31;70114;47.690;8.898;2024-01-06T06:55:15;5.24;86.30
69208;SHT31;70114;47.690;8.898;2024-01-06T06:57:40;5.24;86.22
69208;SHT31;70114;47.690;8.898;2024-01-06T07:00:06;5.23;86.20
69208;SHT31;70114;47.690;8.898;2024-01-06T07:02:34;5.14;85.81
69208;SHT31;70114;47.690;8.898;2024-01-06T07:04:59;5.20;85.98
69208;SHT31;70114;47.690;8.898;2024-01-06T07:07:25;5.18;85.74
69208;SHT31;70114;47.690;8.898;2024-01-06T07:09:50;5.17;85.71
69208;SHT31;70114;47.690;8.898;2024-01-06T07:12:16;5.13;86.16
69208;SHT31;70114;47.690;8.898;2024-01-06T07:14:41;5.11;86.00
69208;SHT31;70114;47.690;8.898;2024-01-06T07:17:06;5.16;85.72
69208;SHT31;70114;47.690;8.898;2024-01-06T07:19:33;5.13;85.72
69208;SHT31;70114;47.690;8.898;2024-01-06T07:21:58;5.10;85.76
69208;SHT31;70114;47.690;8.898;2024-01-06T07:24:23;5.14;85.69
69208;SHT31;70114;47.690;8.898;2024-01-06T07:26:49;5.16;85.75
69208;SHT31;70114;47.690;8.898;2024-01-06T07:29:14;5.04;86.08
69208;SHT31;70114;47.690;8.898;2024-01-06T07:31:40;5.04;85.86
69208;SHT31;70114;47.690;8.898;2024-01-06T07:34:05;5.04;85.96
69208;SHT31;70114;47.690;8.898;2024-01-06T07:36:31;4.91;85.91
69208;SHT31;70114;47.690;8.898;2024-01-06T07:38:57;4.99;85.92
69208;SHT31;70114;47.690;8.898;2024-01-06T07:41:22;5.01;85.80
69208;SHT31;70114;47.690;8.898;2024-01-06T07:43:47;5.06;86.00
69208;SHT31;70114;47.690;8.898;2024-01-06T07:46:13;5.07;85.88
69208;SHT31;70114;47.690;8.898;2024-01-06T07:48:38;5.11;85.96
69208;SHT31;70114;47.690;8.898;2024-01-06T07:51:04;5.11;86.02
69208;SHT31;70114;47.690;8.898;2024-01-06T07:53:29;5.06;86.04
69208;SHT31;70114;47.690;8.898;2024-01-06T07:55:55;4.84;86.65
69208;SHT31;70114;47.690;8.898;2024-01-06T07:58:20;4.99;86.43
69208;SHT31;70114;47.690;8.898;2024-01-06T08:00:47;5.03;86.44
69208;SHT31;70114;47.690;8.898;2024-01-06T08:03:12;5.06;86.56
69208;SHT31;70114;47.690;8.898;2024-01-06T08:05:38;4.79;87.21
69208;SHT31;70114;47.690;8.898;2024-01-06T08:08:04;4.90;87.07
69208;SHT31;70114;47.690;8.898;2024-01-06T08:10:30;5.00;86.73
69208;SHT31;70114;47.690;8.898;2024-01-06T08:12:56;5.06;86.52
69208;SHT31;70114;47.690;8.898;2024-01-06T08:15:22;5.08;86.74
69208;SHT31;70114;47.690;8.898;2024-01-06T08:17:47;5.14;86.77
69208;SHT31;70114;47.690;8.898;2024-01-06T08:20:12;5.18;86.60
69208;SHT31;70114;47.690;8.898;2024-01-06T08:22:38;5.10;86.81
69208;SHT31;70114;47.690;8.898;2024-01-06T08:25:04;4.96;87.46
69208;SHT31;70114;47.690;8.898;2024-01-06T08:27:31;5.03;87.09
69208;SHT31;70114;47.690;8.898;2024-01-06T08:29:56;5.11;86.98
69208;SHT31;70114;47.690;8.898;2024-01-06T08:32:22;5.17;86.91
69208;SHT31;70114;47.690;8.898;2024-01-06T08:34:47;5.24;86.87
69208;SHT31;70114;47.690;8.898;2024-01-06T08:37:12;5.30;86.61
69208;SHT31;70114;47.690;8.898;2024-01-06T08:39:39;5.35;86.46
69208;SHT31;70114;47.690;8.898;2024-01-06T08:42:04;5.31;86.85
69208;SHT31;70114;47.690;8.898;2024-01-06T08:44:30;5.35;86.85
69208;SHT31;70114;47.690;8.898;2024-01-06T08:46:55;5.32;87.24
69208;SHT31;70114;47.690;8.898;2024-01-06T08:49:21;5.28;87.08
69208;SHT31;70114;47.690;8.898;2024-01-06T08:51:47;5.27;86.97
69208;SHT31;70114;47.690;8.898;2024-01-06T08:54:12;5.27;87.33
69208;SHT31;70114;47.690;8.898;2024-01-06T08:56:38;5.30;87.47
69208;SHT31;70114;47.690;8.898;2024-01-06T08:59:04;5.38;86.19
69208;SHT31;70114;47.690;8.898;2024-01-06T09:01:29;5.41;86.34
69208;SHT31;70114;47.690;8.898;2024-01-06T09:03:56;5.44;86.30
69208;SHT31;70114;47.690;8.898;2024-01-06T09:06:22;5.41;86.10
69208;SHT31;70114;47.690;8.898;2024-01-06T09:08:47;5.37;86.10
69208;SHT31;70114;47.690;8.898;2024-01-06T09:11:12;5.45;86.36
69208;SHT31;70114;47.690;8.898;2024-01-06T09:13:39;5.44;86.13
69208;SHT31;70114;47.690;8.898;2024-01-06T09:16:04;5.39;86.32
69208;SHT31;70114;47.690;8.898;2024-01-06T09:18:30;5.39;86.47
69208;SHT31;70114;47.690;8.898;2024-01-06T09:20:55;5.31;86.27
69208;SHT31;70114;47.690;8.898;2024-01-06T09:23:21;5.35;86.84
69208;SHT31;70114;47.690;8.898;2024-01-06T09:25:47;5.35;86.56
69208;SHT31;70114;47.690;8.898;2024-01-06T09:28:17;5.48;86.44
69208;SHT31;70114;47.690;8.898;2024-01-06T09:30:42;5.38;85.80
69208;SHT31;70114;47.690;8.898;2024-01-06T09:33:07;5.41;86.31
69208;SHT31;70114;47.690;8.898;2024-01-06T09:35:35;5.45;85.78
69208;SHT31;70114;47.690;8.898;2024-01-06T09:38:01;5.16;85.82
69208;SHT31;70114;47.690;8.898;2024-01-06T09:40:26;5.30;85.46
69208;SHT31;70114;47.690;8.898;2024-01-06T09:42:52;5.30;86.41
69208;SHT31;70114;47.690;8.898;2024-01-06T09:45:20;5.34;85.75
69208;SHT31;70114;47.690;8.898;2024-01-06T09:47:51;5.41;85.89
69208;SHT31;70114;47.690;8.898;2024-01-06T09:50:20;5.37;85.92
69208;SHT31;70114;47.690;8.898;2024-01-06T09:52:47;5.35;86.01
69208;SHT31;70114;47.690;8.898;2024-01-06T09:55:25;5.41;87.26
69208;SHT31;70114;47.690;8.898;2024-01-06T09:57:54;5.26;87.77
69208;SHT31;70114;47.690;8.898;2024-01-06T10:00:20;5.18;87.72
69208;SHT31;70114;47.690;8.898;2024-01-06T10:02:49;5.30;86.63
69208;SHT31;70114;47.690;8.898;2024-01-06T10:05:16;5.34;86.75
69208;SHT31;70114;47.690;8.898;2024-01-06T10:07:43;5.30;87.27
69208;SHT31;70114;47.690;8.898;2024-01-06T10:10:09;5.35;86.85
69208;SHT31;70114;47.690;8.898;2024-01-06T10:12:37;5.37;86.41
69208;SHT31;70114;47.690;8.898;2024-01-06T10:15:05;5.32;86.19
69208;SHT31;70114;47.690;8.898;2024-01-06T10:17:31;5.48;86.58
69208;SHT31;70114;47.690;8.898;2024-01-06T10:19:57;5.54;86.46
69208;SHT31;70114;47.690;8.898;2024-01-06T10:22:22;5.58;85.24
69208;SHT31;70114;47.690;8.898;2024-01-06T10:24:47;5.59;85.36
69208;SHT31;70114;47.690;8.898;2024-01-06T10:27:13;5.54;86.42
69208;SHT31;70114;47.690;8.898;2024-01-06T10:29:38;5.59;84.78
69208;SHT31;70114;47.690;8.898;2024-01-06T10:32:04;5.56;85.38
69208;SHT31;70114;47.690;8.898;2024-01-06T10:34:29;5.65;85.26
69208;SHT31;70114;47.690;8.898;2024-01-06T10:36:57;5.66;85.24
69208;SHT31;70114;47.690;8.898;2024-01-06T10:39:23;5.65;85.05
69208;SHT31;70114;47.690;8.898;2024-01-06T10:41:49;5.73;85.23
69208;SHT31;70114;47.690;8.898;2024-01-06T10:44:15;5.75;86.52
69208;SHT31;70114;47.690;8.898;2024-01-06T10:46:41;5.72;84.81
69208;SHT31;70114;47.690;8.898;2024-01-06T10:49:08;5.76;84.62
69208;SHT31;70114;47.690;8.898;2024-01-06T10:51:37;5.66;85.33
69208;SHT31;70114;47.690;8.898;2024-01-06T10:54:02;5.75;84.23
69208;SHT31;70114;47.690;8.898;2024-01-06T10:56:29;5.65;84.81
69208;SHT31;70114;47.690;8.898;2024-01-06T10:58:55;5.59;84.64
69208;SHT31;70114;47.690;8.898;2024-01-06T11:01:22;5.69;84.57
69208;SHT31;70114;47.690;8.898;2024-01-06T11:03:49;5.73;85.43
69208;SHT31;70114;47.690;8.898;2024-01-06T11:06:18;5.80;84.56
69208;SHT31;70114;47.690;8.898;2024-01-06T11:11:28;5.86;83.91
69208;SHT31;70114;47.690;8.898;2024-01-06T11:14:17;5.90;83.79
69208;SHT31;70114;47.690;8.898;2024-01-06T11:16:44;5.82;83.69
69208;SHT31;70114;47.690;8.898;2024-01-06T11:22:28;6.00;84.32
69208;SHT31;70114;47.690;8.898;2024-01-06T11:25:03;6.02;83.23
69208;SHT31;70114;47.690;8.898;2024-01-06T11:27:30;6.06;84.07
69208;SHT31;70114;47.690;8.898;2024-01-06T11:29:57;5.92;84.61
69208;SHT31;70114;47.690;8.898;2024-01-06T11:32:33;5.93;85.75
69208;SHT31;70114;47.690;8.898;2024-01-06T11:35:09;5.90;85.68
69208;SHT31;70114;47.690;8.898;2024-01-06T11:40:23;5.85;85.40
69208;SHT31;70114;47.690;8.898;2024-01-06T11:45:24;5.72;85.76
69208;SHT31;70114;47.690;8.898;2024-01-06T11:48:03;5.63;85.63
69208;SHT31;70114;47.690;8.898;2024-01-06T11:50:34;5.76;85.91
69208;SHT31;70114;47.690;8.898;2024-01-06T11:53:00;5.69;85.40
69208;SHT31;70114;47.690;8.898;2024-01-06T11:55:26;5.72;86.02
69208;SHT31;70114;47.690;8.898;2024-01-06T11:57:57;5.70;85.34
69208;SHT31;70114;47.690;8.898;2024-01-06T12:00:27;5.73;85.44
69208;SHT31;70114;47.690;8.898;2024-01-06T12:02:59;5.73;85.14
69208;SHT31;70114;47.690;8.898;2024-01-06T12:05:25;5.73;85.29
69208;SHT31;70114;47.690;8.898;2024-01-06T12:07:59;5.70;85.00
69208;SHT31;70114;47.690;8.898;2024-01-06T12:10:26;5.70;85.17
69208;SHT31;70114;47.690;8.898;2024-01-06T12:15:22;5.79;85.29
69208;SHT31;70114;47.690;8.898;2024-01-06T12:17:48;5.82;85.48
69208;SHT31;70114;47.690;8.898;2024-01-06T12:20:14;5.73;85.29
69208;SHT31;70114;47.690;8.898;2024-01-06T12:22:39;5.79;85.34
69208;SHT31;70114;47.690;8.898;2024-01-06T12:25:04;5.72;85.10
69208;SHT31;70114;47.690;8.898;2024-01-06T12:27:32;5.58;86.15
69208;SHT31;70114;47.690;8.898;2024-01-06T12:29:57;5.70;85.88
69208;SHT31;70114;47.690;8.898;2024-01-06T12:32:23;5.79;85.71
69208;SHT31;70114;47.690;8.898;2024-01-06T12:34:48;5.62;85.38
69208;SHT31;70114;47.690;8.898;2024-01-06T12:37:14;5.80;85.44
69208;SHT31;70114;47.690;8.898;2024-01-06T12:39:40;5.82;85.37
69208;SHT31;70114;47.690;8.898;2024-01-06T12:42:07;5.83;84.82
69208;SHT31;70114;47.690;8.898;2024-01-06T12:44:34;5.92;84.94
69208;SHT31;70114;47.690;8.898;2024-01-06T12:47:02;5.86;85.28
69208;SHT31;70114;47.690;8.898;2024-01-06T12:49:28;5.95;84.60
69208;SHT31;70114;47.690;8.898;2024-01-06T12:51:54;5.70;84.71
69208;SHT31;70114;47.690;8.898;2024-01-06T12:54:19;5.80;84.90
69208;SHT31;70114;47.690;8.898;2024-01-06T12:56:45;5.79;85.17
69208;SHT31;70114;47.690;8.898;2024-01-06T12:59:10;5.75;84.85
69208;SHT31;70114;47.690;8.898;2024-01-06T13:01:36;5.75;84.73
69208;SHT31;70114;47.690;8.898;2024-01-06T13:04:02;5.73;85.08
69208;SHT31;70114;47.690;8.898;2024-01-06T13:06:27;5.72;84.56
69208;SHT31;70114;47.690;8.898;2024-01-06T13:08:53;5.76;84.86
69208;SHT31;70114;47.690;8.898;2024-01-06T13:11:19;5.83;84.32
69208;SHT31;70114;47.690;8.898;2024-01-06T13:13:44;5.83;84.48
69208;SHT31;70114;47.690;8.898;2024-01-06T13:16:10;5.85;84.24
69208;SHT31;70114;47.690;8.898;2024-01-06T13:18:35;5.85;84.51
69208;SHT31;70114;47.690;8.898;2024-01-06T13:21:00;5.89;83.91
69208;SHT31;70114;47.690;8.898;2024-01-06T13:23:27;5.86;84.08
69208;SHT31;70114;47.690;8.898;2024-01-06T13:25:52;5.92;83.66
69208;SHT31;70114;47.690;8.898;2024-01-06T13:28:17;5.86;83.38
69208;SHT31;70114;47.690;8.898;2024-01-06T13:30:43;5.79;83.79
69208;SHT31;70114;47.690;8.898;2024-01-06T13:33:08;5.86;84.11
69208;SHT31;70114;47.690;8.898;2024-01-06T13:35:36;5.85;84.34
69208;SHT31;70114;47.690;8.898;2024-01-06T13:38:03;5.85;84.72
69208;SHT31;70114;47.690;8.898;2024-01-06T13:40:30;5.93;84.07
69208;SHT31;70114;47.690;8.898;2024-01-06T13:42:55;5.87;84.25
69208;SHT31;70114;47.690;8.898;2024-01-06T13:45:21;5.86;84.77
69208;SHT31;70114;47.690;8.898;2024-01-06T13:47:46;5.85;84.76
69208;SHT31;70114;47.690;8.898;2024-01-06T13:50:13;5.87;84.94
69208;SHT31;70114;47.690;8.898;2024-01-06T13:52:39;5.95;84.75
69208;SHT31;70114;47.690;8.898;2024-01-06T13:55:05;5.93;84.30
69208;SHT31;70114;47.690;8.898;2024-01-06T13:57:31;5.96;83.99
69208;SHT31;70114;47.690;8.898;2024-01-06T13:59:56;5.96;83.90
69208;SHT31;70114;47.690;8.898;2024-01-06T14:02:22;5.96;84.04
69208;SHT31;70114;47.690;8.898;2024-01-06T14:04:48;5.93;83.54
69208;SHT31;70114;47.690;8.898;2024-01-06T14:07:13;5.95;83.59
69208;SHT31;70114;47.690;8.898;2024-01-06T14:09:39;5.96;83.81
69208;SHT31;70114;47.690;8.898;2024-01-06T14:12:04;5.99;83.43
69208;SHT31;70114;47.690;8.898;2024-01-06T14:14:33;5.96;83.43
69208;SHT31;70114;47.690;8.898;2024-01-06T14:16:59;5.93;83.79
69208;SHT31;70114;47.690;8.898;2024-01-06T14:19:24;5.96;83.81
69208;SHT31;70114;47.690;8.898;2024-01-06T14:21:50;5.97;84.06
69208;SHT31;70114;47.690;8.898;2024-01-06T14:24:18;5.96;83.95
69208;SHT31;70114;47.690;8.898;2024-01-06T14:26:50;5.92;84.29
69208;SHT31;70114;47.690;8.898;2024-01-06T14:29:16;5.97;84.42
69208;SHT31;70114;47.690;8.898;2024-01-06T14:31:42;5.90;84.67
69208;SHT31;70114;47.690;8.898;2024-01-06T14:34:08;5.93;84.22
69208;SHT31;70114;47.690;8.898;2024-01-06T14:36:33;5.97;84.43
69208;SHT31;70114;47.690;8.898;2024-01-06T14:38:58;5.80;84.58
69208;SHT31;70114;47.690;8.898;2024-01-06T14:41:24;5.92;84.48
69208;SHT31;70114;47.690;8.898;2024-01-06T14:43:49;5.83;85.04
69208;SHT31;70114;47.690;8.898;2024-01-06T14:46:15;5.92;84.74
69208;SHT31;70114;47.690;8.898;2024-01-06T14:48:40;5.92;84.32
69208;SHT31;70114;47.690;8.898;2024-01-06T14:51:05;5.72;85.33
69208;SHT31;70114;47.690;8.898;2024-01-06T14:53:31;5.79;85.34
69208;SHT31;70114;47.690;8.898;2024-01-06T14:55:56;5.80;84.89
69208;SHT31;70114;47.690;8.898;2024-01-06T14:58:22;5.76;85.12
69208;SHT31;70114;47.690;8.898;2024-01-06T15:00:47;5.70;85.53
69208;SHT31;70114;47.690;8.898;2024-01-06T15:03:12;5.72;85.44
69208;SHT31;70114;47.690;8.898;2024-01-06T15:05:38;5.63;85.03
69208;SHT31;70114;47.690;8.898;2024-01-06T15:08:03;5.68;84.41
69208;SHT31;70114;47.690;8.898;2024-01-06T15:10:29;5.66;84.66
69208;SHT31;70114;47.690;8.898;2024-01-06T15:12:54;5.62;84.47
69208;SHT31;70114;47.690;8.898;2024-01-06T15:15:20;5.16;83.63
69208;SHT31;70114;47.690;8.898;2024-01-06T15:17:47;5.14;84.05
69208;SHT31;70114;47.690;8.898;2024-01-06T15:20:13;5.13;84.21
69208;SHT31;70114;47.690;8.898;2024-01-06T15:22:38;5.28;84.68
69208;SHT31;70114;47.690;8.898;2024-01-06T15:25:04;5.35;84.89
69208;SHT31;70114;47.690;8.898;2024-01-06T15:27:31;5.39;84.67
69208;SHT31;70114;47.690;8.898;2024-01-06T15:29:58;5.41;84.75
69208;SHT31;70114;47.690;8.898;2024-01-06T15:32:26;5.35;84.32
69208;SHT31;70114;47.690;8.898;2024-01-06T15:34:52;5.38;84.77
69208;SHT31;70114;47.690;8.898;2024-01-06T15:37:17;5.37;84.61
69208;SHT31;70114;47.690;8.898;2024-01-06T15:39:42;5.42;84.71
69208;SHT31;70114;47.690;8.898;2024-01-06T15:42:08;5.48;84.89
69208;SHT31;70114;47.690;8.898;2024-01-06T15:44:34;5.49;85.01
69208;SHT31;70114;47.690;8.898;2024-01-06T15:46:59;5.49;85.33
69208;SHT31;70114;47.690;8.898;2024-01-06T15:49:24;5.51;85.06
69208;SHT31;70114;47.690;8.898;2024-01-06T15:51:52;5.49;85.58